KNQX

Naval Air Station Key West

Airport
ICAO code
KNQX
Summary
ICAO Region
NAM
ICAO Territory
Location

Key West, Florida,

Coordinates
24° 34' 30" N , 81° 41' 18" W
KCC
Airport BS
Bird Strike
Metar
KNQX 151853Z 10012KT 10SM FEW035 27/18 A3006 RMK AO2 SLP176 T02720183 $

Description

Naval Air Station Key West, or NAS Key West, is a military airport located on Boca Chica Key, 6 km east of the central business district of Key West, Florida.

Climatology

Tropical Savanna climate (Köppen climate classification Aw) - monthly mean temperatures above 18°C, and a pronounced dry season. A Tropical Savanna climate has more pronounced dry seasons than a Tropical Monsoon climate.

Runways

Designator Length Width Surface Rops
3/21 2134 46 PEM Yes/Yes
13/31 2134 46 PEM Yes/Yes
7/25 3048 61 PEM Yes/Yes

Airport map

Aerial View

SKYbrary Partners:

Safety knowledge contributed by: